createdAt,value
2022-11-23T00:01:32.722Z,93.40
2022-11-23T00:04:12.286Z,93.30
2022-11-23T00:06:43.352Z,93.20
2022-11-23T00:09:39.200Z,93.50
2022-11-23T00:12:10.114Z,93.40
2022-11-23T00:14:40.468Z,93.20
2022-11-23T00:20:17.872Z,94.10
2022-11-23T00:22:48.423Z,93.30
2022-11-23T00:25:19.581Z,93.80
2022-11-23T00:27:50.216Z,93.60
2022-11-23T00:30:20.813Z,93.30
2022-11-23T00:32:51.345Z,93.20
2022-11-23T00:35:22.082Z,93.20
2022-11-23T00:37:52.746Z,93.20
2022-11-23T00:40:23.755Z,94.40
2022-11-23T00:42:54.876Z,93.70
2022-11-23T00:45:46.443Z,94.10
2022-11-23T00:48:17.239Z,93.30
2022-11-23T00:50:47.973Z,93.70
2022-11-23T00:53:20.858Z,94.10
2022-11-23T00:55:57.105Z,93.60
2022-11-23T00:58:28.738Z,93.70
2022-11-23T01:01:17.371Z,94.20
2022-11-23T01:03:55.863Z,93.60
2022-11-23T01:06:32.192Z,94.40
2022-11-23T01:09:10.619Z,93.60
2022-11-23T01:11:41.558Z,93.80
2022-11-23T01:14:12.778Z,93.90
2022-11-23T01:16:45.294Z,93.60
2022-11-23T01:19:19.268Z,93.70
2022-11-23T01:21:53.086Z,94.70
2022-11-23T01:24:24.921Z,93.60
2022-11-23T01:26:56.935Z,93.90
2022-11-23T01:29:30.560Z,93.80
2022-11-23T01:32:04.706Z,93.30
2022-11-23T01:34:57.235Z,93.20
2022-11-23T01:37:28.808Z,93.50
2022-11-23T01:39:59.847Z,93.50
2022-11-23T01:43:25.134Z,93.80
2022-11-23T01:45:56.096Z,93.50
2022-11-23T01:48:48.256Z,94.10
2022-11-23T01:51:35.319Z,93.40
2022-11-23T01:54:34.681Z,94.00
2022-11-23T01:57:09.462Z,93.60
2022-11-23T02:00:04.280Z,94.20
2022-11-23T02:02:49.664Z,94.20
2022-11-23T02:05:23.812Z,94.60
2022-11-23T02:07:55.097Z,93.80
2022-11-23T02:10:26.666Z,93.70
2022-11-23T02:12:57.475Z,93.70
2022-11-23T02:15:28.623Z,94.20
2022-11-23T02:18:01.325Z,93.50
2022-11-23T02:20:33.288Z,93.70
2022-11-23T02:23:33.209Z,93.60
2022-11-23T02:26:26.578Z,93.90
2022-11-23T02:29:09.178Z,93.20
2022-11-23T02:31:39.956Z,94.50
2022-11-23T02:34:32.720Z,93.40
2022-11-23T02:37:03.701Z,93.70
2022-11-23T02:39:44.966Z,93.80
2022-11-23T02:42:15.884Z,95.20
2022-11-23T02:45:15.308Z,94.80
2022-11-23T02:47:45.779Z,94.40
2022-11-23T02:50:17.234Z,94.50
2022-11-23T02:53:08.640Z,94.60
2022-11-23T02:55:39.596Z,94.70
2022-11-23T02:58:10.972Z,94.70
2022-11-23T03:00:44.674Z,94.60
2022-11-23T03:03:17.907Z,94.60
2022-11-23T03:05:48.834Z,94.70
2022-11-23T03:08:19.654Z,94.80
2022-11-23T03:10:50.908Z,94.80
2022-11-23T03:13:22.948Z,94.90
2022-11-23T03:15:58.502Z,94.90
2022-11-23T03:18:34.309Z,95.50
2022-11-23T03:21:10.030Z,95.20
2022-11-23T03:23:44.838Z,95.80
2022-11-23T03:26:17.023Z,95.20
2022-11-23T03:28:57.635Z,95.10
2022-11-23T03:31:31.173Z,95.30
2022-11-23T03:34:02.918Z,95.20
2022-11-23T03:36:35.271Z,95.10
2022-11-23T03:39:06.189Z,95.10
2022-11-23T03:42:05.855Z,95.10
2022-11-23T03:44:38.787Z,95.40
2022-11-23T03:47:29.061Z,95.20
2022-11-23T03:49:59.626Z,95.20
2022-11-23T03:55:18.388Z,95.50
2022-11-23T03:57:50.944Z,95.30
2022-11-23T04:00:22.454Z,95.30
2022-11-23T04:02:53.857Z,95.20
2022-11-23T04:05:50.900Z,95.30
2022-11-23T04:08:24.967Z,95.20
2022-11-23T04:11:02.933Z,95.30
2022-11-23T04:13:41.714Z,95.30
2022-11-23T04:16:12.755Z,95.30
2022-11-23T04:19:04.237Z,95.30
2022-11-23T04:21:34.854Z,95.30
2022-11-23T04:24:06.385Z,95.30
2022-11-23T04:26:39.526Z,95.40
2022-11-23T04:29:11.831Z,95.50
2022-11-23T04:31:46.983Z,95.50
2022-11-23T04:34:21.213Z,95.40
2022-11-23T04:36:53.667Z,95.50
2022-11-23T04:42:41.603Z,95.60
2022-11-23T04:45:16.185Z,95.50
2022-11-23T04:47:47.544Z,95.50
2022-11-23T04:50:20.189Z,95.50
2022-11-23T04:53:01.958Z,95.50
2022-11-23T04:55:52.550Z,95.60
2022-11-23T04:58:23.368Z,95.60
2022-11-23T05:01:21.889Z,95.60
2022-11-23T05:04:17.897Z,95.60
2022-11-23T05:06:49.973Z,95.60
2022-11-23T05:09:21.627Z,95.60
2022-11-23T05:12:15.829Z,95.60
2022-11-23T05:14:47.479Z,95.60
2022-11-23T05:17:23.439Z,95.90
2022-11-23T05:19:57.397Z,95.70
2022-11-23T05:22:28.621Z,95.70
2022-11-23T05:25:00.074Z,95.70
2022-11-23T05:27:32.845Z,95.70
2022-11-23T05:30:05.151Z,95.70
2022-11-23T05:32:35.928Z,96.10
2022-11-23T05:35:10.983Z,95.90
2022-11-23T05:37:41.748Z,95.80
2022-11-23T05:40:15.128Z,95.80
2022-11-23T05:42:46.091Z,95.90
2022-11-23T05:45:22.669Z,95.80
2022-11-23T05:47:58.831Z,95.90
2022-11-23T05:50:58.620Z,95.90
2022-11-23T05:53:39.085Z,95.90
2022-11-23T05:56:20.680Z,95.90
2022-11-23T05:59:14.719Z,95.90
2022-11-23T06:01:49.397Z,95.90
2022-11-23T06:04:27.534Z,95.90
2022-11-23T06:07:05.770Z,95.90
2022-11-23T06:10:15.160Z,95.90
2022-11-23T06:12:53.961Z,96.10
2022-11-23T06:15:46.151Z,96.10
2022-11-23T06:18:19.061Z,96.10
2022-11-23T06:20:52.466Z,96.10
2022-11-23T06:23:23.021Z,96.10
2022-11-23T06:25:58.195Z,96.40
2022-11-23T06:28:50.691Z,96.00
2022-11-23T06:31:21.238Z,96.10
2022-11-23T06:33:53.913Z,96.00
2022-11-23T06:36:27.432Z,96.00
2022-11-23T06:38:58.026Z,96.00
2022-11-23T06:41:32.358Z,96.00
2022-11-23T06:44:05.367Z,96.00
2022-11-23T06:46:42.288Z,96.10
2022-11-23T06:49:16.179Z,96.10
2022-11-23T06:51:50.490Z,96.30
2022-11-23T06:54:25.981Z,96.20
2022-11-23T06:57:01.496Z,96.10
2022-11-23T06:59:34.675Z,96.10
2022-11-23T07:02:27.028Z,96.10
2022-11-23T07:05:01.331Z,96.10
2022-11-23T07:07:40.297Z,96.10
2022-11-23T07:10:17.943Z,96.30
2022-11-23T07:12:50.988Z,96.20
2022-11-23T07:15:24.172Z,96.10
2022-11-23T07:17:55.725Z,96.10
2022-11-23T07:20:27.981Z,96.40
2022-11-23T07:23:09.734Z,96.20
2022-11-23T07:25:42.797Z,96.10
2022-11-23T07:28:15.712Z,96.20
2022-11-23T07:30:47.007Z,96.20
2022-11-23T07:33:18.643Z,96.20
2022-11-23T07:35:50.483Z,96.20
2022-11-23T07:38:21.538Z,96.20
2022-11-23T07:40:53.704Z,96.20
2022-11-23T07:43:39.164Z,96.30
2022-11-23T07:46:10.934Z,96.30
2022-11-23T07:48:41.628Z,96.30
2022-11-23T07:51:13.160Z,96.50
2022-11-23T07:53:44.037Z,96.40
2022-11-23T07:56:15.047Z,96.40
2022-11-23T07:58:45.638Z,96.60
2022-11-23T08:01:19.800Z,96.40
2022-11-23T08:03:50.864Z,96.40
2022-11-23T08:06:22.922Z,96.40
2022-11-23T08:08:53.591Z,96.30
2022-11-23T08:11:28.200Z,96.50
2022-11-23T08:13:58.681Z,96.50
2022-11-23T08:16:29.553Z,96.50
2022-11-23T08:19:00.224Z,96.50
2022-11-23T08:21:50.960Z,96.50
2022-11-23T08:24:22.137Z,96.50
2022-11-23T08:26:52.771Z,96.50
2022-11-23T08:29:23.572Z,96.60
2022-11-23T08:31:54.555Z,96.80
2022-11-23T08:34:25.461Z,96.50
2022-11-23T08:36:56.387Z,96.60
2022-11-23T08:39:27.574Z,96.60
2022-11-23T08:41:59.179Z,96.50
2022-11-23T08:44:30.830Z,96.50
2022-11-23T08:47:22.551Z,96.60
2022-11-23T08:49:53.375Z,96.60
2022-11-23T08:52:23.954Z,96.60
2022-11-23T08:54:55.637Z,96.80
2022-11-23T08:57:26.377Z,96.60
2022-11-23T08:59:57.298Z,96.60
2022-11-23T09:02:28.452Z,96.60
2022-11-23T09:05:00.686Z,96.70
2022-11-23T09:07:32.246Z,96.70
2022-11-23T09:10:03.475Z,96.60
2022-11-23T09:12:36.271Z,96.70
2022-11-23T09:15:07.642Z,96.60
2022-11-23T09:17:41.519Z,96.70
2022-11-23T09:20:12.705Z,96.70
2022-11-23T09:22:43.513Z,96.70
2022-11-23T09:25:21.105Z,96.70
2022-11-23T09:30:44.399Z,96.70
2022-11-23T09:33:16.533Z,96.80
2022-11-23T09:35:47.556Z,96.80
2022-11-23T09:38:18.537Z,96.70
2022-11-23T09:41:26.089Z,96.80
2022-11-23T09:44:04.819Z,96.80
2022-11-23T09:46:44.979Z,96.80
2022-11-23T09:49:42.813Z,96.80
2022-11-23T09:52:26.345Z,96.80
2022-11-23T09:55:16.083Z,96.80
2022-11-23T09:57:50.660Z,96.80
2022-11-23T10:00:27.201Z,96.80
2022-11-23T10:06:21.619Z,96.80
2022-11-23T10:09:19.637Z,96.80
2022-11-23T10:12:09.743Z,96.80
2022-11-23T10:15:11.430Z,96.90
2022-11-23T10:18:24.012Z,96.80
2022-11-23T10:23:58.354Z,96.90
2022-11-23T10:26:34.707Z,96.90
2022-11-23T10:29:30.152Z,96.90
2022-11-23T10:32:02.358Z,96.90
2022-11-23T10:35:12.879Z,97.20
2022-11-23T10:37:45.518Z,96.90
2022-11-23T10:40:30.640Z,96.90
2022-11-23T10:43:27.826Z,97.00
2022-11-23T10:46:38.998Z,96.90
2022-11-23T10:49:24.602Z,96.90
2022-11-23T10:52:27.326Z,96.90
2022-11-23T10:55:09.926Z,97.00
2022-11-23T10:57:49.086Z,96.90
2022-11-23T11:00:27.238Z,96.90
2022-11-23T11:03:03.834Z,96.90
2022-11-23T11:06:08.562Z,97.00
2022-11-23T11:08:59.567Z,96.90
2022-11-23T11:11:40.649Z,97.00
2022-11-23T11:14:26.781Z,97.00
2022-11-23T11:17:01.913Z,97.00
2022-11-23T11:19:40.876Z,97.00
2022-11-23T11:22:28.776Z,97.00
2022-11-23T11:24:59.648Z,97.10
2022-11-23T11:27:33.744Z,97.00
2022-11-23T11:30:31.139Z,97.00
2022-11-23T11:33:30.765Z,97.00
2022-11-23T11:36:11.669Z,97.00
2022-11-23T11:39:01.404Z,97.00
2022-11-23T11:41:40.179Z,97.00
2022-11-23T11:44:21.759Z,97.00
2022-11-23T11:47:26.146Z,97.10
2022-11-23T11:50:04.515Z,97.00
2022-11-23T11:52:43.206Z,97.10
2022-11-23T11:55:17.590Z,97.10
2022-11-23T11:58:06.633Z,97.10
2022-11-23T12:00:45.066Z,97.10
2022-11-23T12:03:34.113Z,97.10
2022-11-23T12:06:28.732Z,97.10
2022-11-23T12:09:13.590Z,97.00
2022-11-23T12:11:46.240Z,97.10
2022-11-23T12:14:19.021Z,97.10
2022-11-23T12:17:42.869Z,97.10
2022-11-23T12:20:31.433Z,97.10
2022-11-23T12:23:26.359Z,97.20
2022-11-23T12:26:12.987Z,97.10
2022-11-23T12:29:02.907Z,97.20
2022-11-23T12:31:45.591Z,97.20
2022-11-23T12:34:32.936Z,97.30
2022-11-23T12:37:33.561Z,97.30
2022-11-23T12:40:53.601Z,97.20
2022-11-23T12:44:26.731Z,97.20
2022-11-23T12:47:05.848Z,97.30
2022-11-23T12:49:47.949Z,97.30
2022-11-23T12:52:22.033Z,97.30
2022-11-23T12:55:23.211Z,97.30
2022-11-23T12:58:08.779Z,97.30
2022-11-23T13:00:45.357Z,97.40
2022-11-23T13:03:53.671Z,97.40
2022-11-23T13:06:49.993Z,97.40
2022-11-23T13:09:57.940Z,97.30
2022-11-23T13:12:28.970Z,97.40
2022-11-23T13:15:17.032Z,97.40
2022-11-23T13:18:12.576Z,97.50
2022-11-23T13:21:11.931Z,97.40
2022-11-23T13:23:43.373Z,97.50
2022-11-23T13:26:35.070Z,97.50
2022-11-23T13:30:11.628Z,97.50
2022-11-23T13:32:47.706Z,97.50
2022-11-23T13:35:23.008Z,97.50
2022-11-23T13:38:01.520Z,97.50
2022-11-23T13:40:39.293Z,97.50
2022-11-23T13:43:22.702Z,97.50
2022-11-23T13:46:14.895Z,97.50
2022-11-23T13:48:57.908Z,97.50
2022-11-23T13:51:32.996Z,97.60
2022-11-23T13:54:06.287Z,97.60
2022-11-23T13:56:43.733Z,97.60
2022-11-23T13:59:33.803Z,97.90
2022-11-23T14:02:11.836Z,97.60
2022-11-23T14:04:44.808Z,97.60
2022-11-23T14:07:40.821Z,97.60
2022-11-23T14:10:28.045Z,97.60
2022-11-23T14:13:15.765Z,97.60
2022-11-23T14:16:01.806Z,98.00
2022-11-23T14:18:48.647Z,97.70
2022-11-23T14:21:41.757Z,97.60
2022-11-23T14:24:31.731Z,97.60
2022-11-23T14:27:46.760Z,97.70
2022-11-23T14:30:45.222Z,97.60
2022-11-23T14:33:57.724Z,97.60
2022-11-23T14:36:39.796Z,97.60
2022-11-23T14:39:19.853Z,97.70
2022-11-23T14:42:00.705Z,97.70
2022-11-23T14:44:38.383Z,97.70
2022-11-23T14:47:11.736Z,97.70
2022-11-23T14:49:53.343Z,97.70
2022-11-23T14:52:27.052Z,97.90
2022-11-23T14:55:08.579Z,97.80
2022-11-23T14:57:46.452Z,98.00
2022-11-23T15:00:50.220Z,97.90
2022-11-23T15:06:22.932Z,97.90
2022-11-23T15:09:26.167Z,97.90
2022-11-23T15:12:09.452Z,97.80
2022-11-23T15:17:31.683Z,97.90
2022-11-23T15:20:04.710Z,98.20
2022-11-23T15:22:39.756Z,98.30
2022-11-23T15:25:17.596Z,98.30
2022-11-23T15:27:55.829Z,98.20
2022-11-23T15:30:32.491Z,98.30
2022-11-23T15:33:09.583Z,98.30
2022-11-23T15:35:44.570Z,98.30
2022-11-23T15:38:23.215Z,98.40
2022-11-23T15:40:54.465Z,98.60
2022-11-23T15:43:44.796Z,98.40
2022-11-23T15:46:16.382Z,98.70
2022-11-23T15:48:51.789Z,98.40
2022-11-23T15:51:35.602Z,98.40
2022-11-23T15:54:06.630Z,98.60
2022-11-23T15:56:40.553Z,98.70
2022-11-23T15:59:54.331Z,99.00
2022-11-23T16:02:29.769Z,99.10
2022-11-23T16:05:18.574Z,99.00
2022-11-23T16:08:01.632Z,99.10
2022-11-23T16:10:36.926Z,99.20
2022-11-23T16:13:10.345Z,99.10
2022-11-23T16:15:44.698Z,98.90
2022-11-23T16:18:23.642Z,98.80
2022-11-23T16:20:58.196Z,98.90
2022-11-23T16:23:47.466Z,98.70
2022-11-23T16:26:26.153Z,98.80
2022-11-23T16:29:01.153Z,98.60
2022-11-23T16:34:21.827Z,98.70
2022-11-23T16:36:55.249Z,98.80
2022-11-23T16:39:28.949Z,98.30
2022-11-23T16:42:00.318Z,98.20
2022-11-23T16:44:41.231Z,98.40
2022-11-23T16:47:31.882Z,98.30
2022-11-23T16:50:02.923Z,98.30
2022-11-23T16:52:33.791Z,98.30
2022-11-23T16:55:05.242Z,98.40
2022-11-23T16:57:36.486Z,98.50
2022-11-23T17:00:25.417Z,98.30
2022-11-23T17:02:56.205Z,98.30
2022-11-23T17:05:29.881Z,98.30
2022-11-23T17:08:00.925Z,98.40
2022-11-23T17:10:32.585Z,98.50
2022-11-23T17:13:03.635Z,98.70
2022-11-23T17:15:34.509Z,98.60
2022-11-23T17:18:08.864Z,98.40
2022-11-23T17:20:41.972Z,98.40
2022-11-23T17:23:13.425Z,98.50
2022-11-23T17:25:44.522Z,98.40
2022-11-23T17:28:23.883Z,98.30
2022-11-23T17:30:54.603Z,98.40
2022-11-23T17:33:25.668Z,98.60
2022-11-23T17:36:01.355Z,98.60
2022-11-23T17:38:32.070Z,98.40
2022-11-23T17:41:03.937Z,98.80
2022-11-23T17:43:35.095Z,98.60
2022-11-23T17:46:06.086Z,98.60
2022-11-23T17:48:36.856Z,98.50
2022-11-23T17:51:07.408Z,98.50
2022-11-23T17:53:38.068Z,98.40
2022-11-23T17:56:17.124Z,98.30
2022-11-23T17:58:48.850Z,98.40
2022-11-23T18:01:22.502Z,98.30
2022-11-23T18:03:53.256Z,98.40
2022-11-23T18:06:25.989Z,98.40
2022-11-23T18:08:57.029Z,98.30
2022-11-23T18:11:29.779Z,98.30
2022-11-23T18:14:04.731Z,98.40
2022-11-23T18:16:35.149Z,98.30
2022-11-23T18:19:06.181Z,98.20
2022-11-23T18:21:36.965Z,98.20
2022-11-23T18:24:10.866Z,98.40
2022-11-23T18:26:41.173Z,98.20
2022-11-23T18:29:16.908Z,98.30
2022-11-23T18:31:48.042Z,98.40
2022-11-23T18:34:19.150Z,98.30
2022-11-23T18:36:50.196Z,98.30
2022-11-23T18:39:21.243Z,98.40
2022-11-23T18:41:52.648Z,98.40
2022-11-23T18:44:23.425Z,98.40
2022-11-23T18:46:54.341Z,98.30
2022-11-23T18:49:25.902Z,98.30
2022-11-23T18:54:43.605Z,98.40
2022-11-23T18:57:17.713Z,98.30
2022-11-23T18:59:58.034Z,98.30
2022-11-23T19:02:29.511Z,98.40
2022-11-23T19:05:00.512Z,98.30
2022-11-23T19:07:31.218Z,98.40
2022-11-23T19:10:01.772Z,98.40
2022-11-23T19:12:33.944Z,98.40
2022-11-23T19:15:27.487Z,98.40
2022-11-23T19:18:18.194Z,98.30
2022-11-23T19:20:48.719Z,98.30
2022-11-23T19:23:19.591Z,98.20
2022-11-23T19:25:50.336Z,98.20
2022-11-23T19:28:21.265Z,98.30
2022-11-23T19:30:51.852Z,98.20
2022-11-23T19:33:22.793Z,98.50
2022-11-23T19:35:54.064Z,98.30
2022-11-23T19:38:25.877Z,98.20
2022-11-23T19:41:16.921Z,98.20
2022-11-23T19:43:49.529Z,98.30
2022-11-23T19:46:23.367Z,98.20
2022-11-23T19:48:53.721Z,98.20
2022-11-23T19:51:25.152Z,98.20
2022-11-23T19:53:59.073Z,98.20
2022-11-23T19:56:30.885Z,98.20
2022-11-23T19:59:02.839Z,98.20
2022-11-23T20:01:34.500Z,98.20
2022-11-23T20:04:10.018Z,98.20
2022-11-23T20:06:45.118Z,98.20
2022-11-23T20:09:20.537Z,98.20
2022-11-23T20:11:51.824Z,98.20
2022-11-23T20:14:23.054Z,98.20
2022-11-23T20:16:53.822Z,98.20
2022-11-23T20:19:24.692Z,98.20
2022-11-23T20:21:55.507Z,98.20
2022-11-23T20:24:26.422Z,98.20
2022-11-23T20:26:57.351Z,98.40
2022-11-23T20:29:29.367Z,98.40
2022-11-23T20:32:00.386Z,98.40
2022-11-23T20:34:30.996Z,98.40
2022-11-23T20:37:01.497Z,98.30
2022-11-23T20:39:51.862Z,98.30
2022-11-23T20:42:22.929Z,98.20
2022-11-23T20:44:53.737Z,98.20
2022-11-23T20:47:24.586Z,98.20
2022-11-23T20:49:55.617Z,98.20
2022-11-23T20:52:26.482Z,98.20
2022-11-23T20:54:59.196Z,98.20
2022-11-23T21:00:13.850Z,98.30
2022-11-23T21:02:45.227Z,98.20
2022-11-23T21:05:15.800Z,98.20
2022-11-23T21:07:47.530Z,98.20
2022-11-23T21:10:36.457Z,98.20
2022-11-23T21:13:25.265Z,98.30
2022-11-23T21:15:55.983Z,98.40
2022-11-23T21:18:26.977Z,98.40
2022-11-23T21:20:59.120Z,98.40
2022-11-23T21:23:35.424Z,98.40
2022-11-23T21:26:09.421Z,98.40
2022-11-23T21:28:40.049Z,98.30
2022-11-23T21:31:11.729Z,98.30
2022-11-23T21:33:43.436Z,98.20
2022-11-23T21:36:14.229Z,98.30
2022-11-23T21:38:45.185Z,98.40
2022-11-23T21:41:19.433Z,98.40
2022-11-23T21:43:53.978Z,98.30
2022-11-23T21:46:25.985Z,98.40
2022-11-23T21:48:58.570Z,98.70
2022-11-23T21:51:31.855Z,98.30
2022-11-23T21:54:05.056Z,98.30
2022-11-23T21:56:36.174Z,98.40
2022-11-23T21:59:07.288Z,98.50
2022-11-23T22:01:40.208Z,98.40
2022-11-23T22:04:16.511Z,98.30
2022-11-23T22:06:47.381Z,98.30
2022-11-23T22:09:18.437Z,98.40
2022-11-23T22:11:48.979Z,98.30
2022-11-23T22:14:20.955Z,98.30
2022-11-23T22:16:52.289Z,98.40
2022-11-23T22:19:42.653Z,98.30
2022-11-23T22:22:13.030Z,98.30
2022-11-23T22:24:43.542Z,98.30
2022-11-23T22:27:14.019Z,98.30
2022-11-23T22:29:44.512Z,98.60
2022-11-23T22:32:15.040Z,98.30
2022-11-23T22:34:46.209Z,98.30
2022-11-23T22:37:20.024Z,98.30
2022-11-23T22:42:40.525Z,98.30
2022-11-23T22:45:11.422Z,98.30
2022-11-23T22:47:42.151Z,98.40
2022-11-23T22:50:12.808Z,98.40
2022-11-23T22:53:03.191Z,98.30
2022-11-23T22:55:34.014Z,98.40
2022-11-23T22:58:04.681Z,98.30
2022-11-23T23:00:35.204Z,98.40
2022-11-23T23:03:06.353Z,98.30
2022-11-23T23:05:36.947Z,98.30
2022-11-23T23:08:28.991Z,98.30
2022-11-23T23:11:08.609Z,98.30
2022-11-23T23:13:39.212Z,98.30
2022-11-23T23:16:14.299Z,98.30
2022-11-23T23:18:45.503Z,98.30
2022-11-23T23:21:21.623Z,98.30
2022-11-23T23:23:57.416Z,98.30
2022-11-23T23:26:29.770Z,98.30
2022-11-23T23:29:02.223Z,98.30
2022-11-23T23:31:32.864Z,98.30
2022-11-23T23:34:03.639Z,98.40
2022-11-23T23:36:34.114Z,98.30
2022-11-23T23:41:51.840Z,98.40
2022-11-23T23:44:22.444Z,98.40
2022-11-23T23:46:53.045Z,98.40
2022-11-23T23:49:25.686Z,98.30
2022-11-23T23:51:59.919Z,98.40
2022-11-23T23:54:30.664Z,98.40
2022-11-23T23:57:01.304Z,98.40
2022-11-23T23:59:32.341Z,98.40
